Time;durP1;ratioP1;P1;durP2;ratioP2;P2;SDS_P1;SDS_P2;PMS_P1;PMS_P2;Temp;Humidity;BMP_temperature;BMP_pressure;BME280_temperature;BME280_humidity;BME280_pressure;Samples;Min_cycle;Max_cycle;Signal;HPM_P1;HPM_P2
2021/07/20 00:00:40;;;;;;;;;;;;;;;22.39;89.06;98503.74;1873382;76;20097;-62
2021/07/20 00:03:15;;;;;;;;;;;;;;;22.37;88.70;98502.52;1873450;76;20208;-62
2021/07/20 00:05:50;;;;;;;;;;;;;;;22.37;88.42;98509.56;1873266;76;20359;-62
2021/07/20 00:08:25;;;;;;;;;;;;;;;22.35;88.20;98516.19;1873437;76;20216;-62
2021/07/20 00:11:02;;;;;;;;;;;;;;;22.33;88.01;98521.96;1873413;76;20098;-62
2021/07/20 00:13:37;;;;;;;;;;;;;;;22.29;88.45;98516.47;1873468;76;20097;-62
2021/07/20 00:16:32;;;;;;;;;;;;;;;22.25;88.29;98513.10;1892710;76;20100;-63
2021/07/20 00:19:08;;;;;;;;;;;;;;;22.24;88.47;98511.41;1873217;76;20101;-63
2021/07/20 00:21:43;;;;;;;;;;;;;;;22.24;87.91;98506.15;1892784;76;20093;-63
2021/07/20 00:24:17;;;;;;;;;;;;;;;22.26;87.58;98505.63;1873474;76;20097;-62
2021/07/20 00:26:52;;;;;;;;;;;;;;;22.28;87.01;98503.76;1873472;76;20208;-61
2021/07/20 00:29:26;;;;;;;;;;;;;;;22.33;86.95;98508.35;1873444;76;20307;-62
2021/07/20 00:32:01;;;;;;;;;;;;;;;22.36;86.37;98509.14;1873480;76;20204;-61
2021/07/20 00:34:35;;;;;;;;;;;;;;;22.35;85.44;98507.45;1892810;76;20101;-61
2021/07/20 00:37:10;;;;;;;;;;;;;;;22.36;85.34;98514.41;1837859;77;20210;-62
2021/07/20 00:39:44;;;;;;;;;;;;;;;22.31;84.98;98518.11;1873572;76;20442;-61
2021/07/20 00:42:19;;;;;;;;;;;;;;;22.29;84.81;98519.94;1873398;76;20196;-62
2021/07/20 00:44:54;;;;;;;;;;;;;;;22.27;84.97;98524.88;1873413;76;20098;-63
2021/07/20 00:47:28;;;;;;;;;;;;;;;22.22;85.87;98521.59;1873462;76;20564;-61
2021/07/20 00:50:06;;;;;;;;;;;;;;;22.20;86.03;98524.74;1873456;76;20208;-62
2021/07/20 00:52:42;;;;;;;;;;;;;;;22.20;86.29;98520.33;1892753;76;20347;-63
2021/07/20 00:55:37;;;;;;;;;;;;;;;22.22;87.26;98519.81;1873462;76;20458;-62
2021/07/20 00:58:12;;;;;;;;;;;;;;;22.22;87.73;98515.02;1892738;76;20207;-62
2021/07/20 01:00:51;;;;;;;;;;;;;;;22.21;88.70;98511.55;1873380;76;20344;-61
2021/07/20 01:03:25;;;;;;;;;;;;;;;22.17;88.41;98509.93;1873400;76;20101;-61
2021/07/20 01:06:02;;;;;;;;;;;;;;;22.14;89.39;98514.01;1892783;76;20203;-62
2021/07/20 01:08:57;;;;;;;;;;;;;;;22.07;90.18;98507.30;1876945;75;20160;-62
2021/07/20 01:11:34;;;;;;;;;;;;;;;21.98;90.74;98503.31;1873488;76;20180;-62
2021/07/20 01:14:28;;;;;;;;;;;;;;;21.91;91.11;98503.64;1892758;76;20101;-62
2021/07/20 01:17:04;;;;;;;;;;;;;;;21.85;91.46;98506.92;1873398;76;20098;-62
2021/07/20 01:19:43;;;;;;;;;;;;;;;21.82;91.85;98496.52;1892814;76;20093;-61
2021/07/20 01:22:30;;;;;;;;;;;;;;;21.80;92.27;98489.63;1892864;76;20092;-62
2021/07/20 01:25:12;;;;;;;;;;;;;;;21.78;92.53;98492.33;1873299;76;20102;-61
2021/07/20 01:27:50;;;;;;;;;;;;;;;21.75;92.34;98491.13;1873452;76;20208;-62
2021/07/20 01:30:23;;;;;;;;;;;;;;;21.77;91.80;98495.02;1892722;76;20203;-61
2021/07/20 01:33:00;;;;;;;;;;;;;;;21.79;91.49;98507.16;1892737;76;20097;-61
2021/07/20 01:35:34;;;;;;;;;;;;;;;21.81;91.15;98506.64;1873637;76;20188;-61
2021/07/20 01:38:11;;;;;;;;;;;;;;;21.84;91.26;98507.82;1873581;76;20102;-62
2021/07/20 01:40:47;;;;;;;;;;;;;;;21.83;91.89;98507.87;1892771;76;20211;-62
2021/07/20 01:43:22;;;;;;;;;;;;;;;21.77;92.36;98507.68;1892964;76;20097;-62
2021/07/20 01:45:58;;;;;;;;;;;;;;;21.71;92.74;98511.03;1892857;76;20207;-62
2021/07/20 01:48:54;;;;;;;;;;;;;;;21.66;92.86;98517.79;1873385;76;20359;-62
2021/07/20 01:51:30;;;;;;;;;;;;;;;21.60;93.19;98511.45;1873389;76;20101;-62
2021/07/20 01:54:07;;;;;;;;;;;;;;;21.54;93.51;98519.59;1873388;76;20176;-62
2021/07/20 01:56:44;;;;;;;;;;;;;;;21.51;93.86;98515.33;1873242;76;20351;-62
2021/07/20 01:59:19;;;;;;;;;;;;;;;21.49;94.05;98516.30;1873450;76;20212;-63
2021/07/20 02:02:04;;;;;;;;;;;;;;;21.49;94.28;98513.68;1873474;76;20462;-62
2021/07/20 02:10:59;;;;;;;;;;;;;;;21.58;94.16;98512.00;1873461;76;20200;-62
2021/07/20 02:13:42;;;;;;;;;;;;;;;21.63;93.14;98510.89;1892776;76;20351;-63
2021/07/20 02:16:18;;;;;;;;;;;;;;;21.66;92.66;98505.50;1873446;76;20098;-61
2021/07/20 02:19:30;;;;;;;;;;;;;;;21.67;91.88;98505.89;1892743;76;20100;-62
2021/07/20 02:22:26;;;;;;;;;;;;;;;21.65;91.30;98504.24;1873383;76;20213;-62
2021/07/20 02:25:03;;;;;;;;;;;;;;;21.63;90.97;98506.10;1873296;76;20102;-61
2021/07/20 02:27:39;;;;;;;;;;;;;;;21.64;90.59;98500.77;1892796;76;20461;-62
2021/07/20 02:30:15;;;;;;;;;;;;;;;21.70;89.75;98508.00;1892792;76;20097;-61
2021/07/20 02:33:10;;;;;;;;;;;;;;;21.73;89.10;98507.43;1873417;76;20180;-62
2021/07/20 02:35:46;;;;;;;;;;;;;;;21.77;88.76;98508.98;1892818;76;20097;-62
2021/07/20 02:38:22;;;;;;;;;;;;;;;21.80;88.49;98510.17;1873391;76;20098;-63
2021/07/20 02:40:58;;;;;;;;;;;;;;;21.84;88.25;98514.39;1873378;76;20098;-61
2021/07/20 02:43:32;;;;;;;;;;;;;;;21.87;88.57;98520.81;1873460;76;20351;-61
2021/07/20 02:46:27;;;;;;;;;;;;;;;21.87;88.44;98519.51;1873485;76;20290;-62
2021/07/20 02:49:03;;;;;;;;;;;;;;;21.84;88.18;98519.64;1873385;76;20097;-63
2021/07/20 02:51:38;;;;;;;;;;;;;;;21.84;88.12;98523.58;1873459;76;20347;-63
2021/07/20 02:54:33;;;;;;;;;;;;;;;21.83;87.96;98521.89;1892707;76;20096;-62
2021/07/20 02:57:09;;;;;;;;;;;;;;;21.83;87.98;98524.52;1873311;76;20098;-62
2021/07/20 03:00:09;;;;;;;;;;;;;;;21.84;87.72;98518.33;1873282;76;20101;-62
2021/07/20 03:03:07;;;;;;;;;;;;;;;21.84;87.79;98523.58;1892712;76;20100;-63
2021/07/20 03:05:44;;;;;;;;;;;;;;;21.80;87.97;98528.55;1873318;76;20102;-63
2021/07/20 03:08:23;;;;;;;;;;;;;;;21.78;88.00;98542.23;1873264;76;20355;-62
2021/07/20 03:10:59;;;;;;;;;;;;;;;21.79;87.96;98543.94;1873466;76;20212;-63
2021/07/20 03:13:57;;;;;;;;;;;;;;;21.80;87.97;98535.59;1873314;76;20101;-63
2021/07/20 03:16:59;;;;;;;;;;;;;;;21.81;87.77;98525.03;1873392;76;20212;-62
2021/07/20 03:20:01;;;;;;;;;;;;;;;21.82;87.75;98522.78;1892735;76;20097;-62
2021/07/20 03:22:57;;;;;;;;;;;;;;;21.81;87.68;98521.09;1873332;76;20098;-62
2021/07/20 03:25:57;;;;;;;;;;;;;;;21.82;87.79;98512.28;1892744;76;20104;-62
2021/07/20 03:28:32;;;;;;;;;;;;;;;21.80;87.68;98512.80;1892777;76;20097;-62
2021/07/20 03:31:27;;;;;;;;;;;;;;;21.80;87.57;98515.89;1892662;76;20101;-62
2021/07/20 03:34:04;;;;;;;;;;;;;;;21.79;87.66;98514.20;1873395;76;20098;-62
2021/07/20 03:36:39;;;;;;;;;;;;;;;21.81;87.56;98523.72;1873466;76;20097;-62
2021/07/20 03:39:15;;;;;;;;;;;;;;;21.87;87.52;98522.13;1873576;76;20200;-62
2021/07/20 03:41:50;;;;;;;;;;;;;;;21.97;87.36;98523.92;1892913;76;20097;-64
2021/07/20 03:44:25;;;;;;;;;;;;;;;22.07;86.67;98521.76;1892808;76;20104;-63
2021/07/20 03:47:01;;;;;;;;;;;;;;;22.14;86.28;98520.58;1892769;76;20093;-63
2021/07/20 03:49:57;;;;;;;;;;;;;;;22.21;85.99;98522.06;1873298;76;20348;-62
2021/07/20 03:52:52;;;;;;;;;;;;;;;22.32;85.84;98530.78;1873443;76;20101;-62
2021/07/20 03:55:39;;;;;;;;;;;;;;;22.43;85.52;98528.98;1892750;76;20117;-63
2021/07/20 03:58:34;;;;;;;;;;;;;;;22.47;85.37;98531.89;1873305;76;20097;-62
2021/07/20 04:01:31;;;;;;;;;;;;;;;22.54;85.11;98533.30;1892760;76;20100;-62
2021/07/20 04:04:30;;;;;;;;;;;;;;;22.63;84.73;98531.58;1873297;76;20101;-63
2021/07/20 04:07:26;;;;;;;;;;;;;;;22.71;84.57;98537.34;1892792;76;20211;-63
2021/07/20 04:10:23;;;;;;;;;;;;;;;22.76;84.42;98545.03;1873250;76;20097;-61
2021/07/20 04:12:57;;;;;;;;;;;;;;;22.82;84.34;98547.84;1873480;76;20098;-62
2021/07/20 04:15:34;;;;;;;;;;;;;;;22.93;84.29;98554.80;1873232;76;20102;-61
2021/07/20 04:18:09;;;;;;;;;;;;;;;23.04;83.70;98556.49;1892797;76;20350;-63
2021/07/20 04:20:44;;;;;;;;;;;;;;;23.19;83.12;98564.99;1873495;76;20204;-62
2021/07/20 04:23:20;;;;;;;;;;;;;;;23.33;82.62;98563.48;1873467;76;20208;-62
2021/07/20 04:25:56;;;;;;;;;;;;;;;23.44;82.12;98569.11;1873493;76;20212;-63
2021/07/20 04:28:31;;;;;;;;;;;;;;;23.48;81.70;98573.28;1873432;76;20204;-62
2021/07/20 04:31:07;;;;;;;;;;;;;;;23.57;81.32;98564.10;1892731;76;20350;-63
2021/07/20 04:33:45;;;;;;;;;;;;;;;23.69;80.75;98560.03;1873515;76;20204;-63
2021/07/20 04:36:49;;;;;;;;;;;;;;;23.76;80.16;98561.44;1892806;76;20203;-62
2021/07/20 04:39:24;;;;;;;;;;;;;;;23.79;80.05;98563.95;1873485;76;20208;-62
2021/07/20 04:42:01;;;;;;;;;;;;;;;23.85;80.07;98562.78;1873253;76;20102;-62
2021/07/20 04:44:37;;;;;;;;;;;;;;;23.87;79.89;98571.00;1892795;76;20207;-62
2021/07/20 04:47:12;;;;;;;;;;;;;;;23.90;80.13;98566.05;1837836;77;20350;-62
2021/07/20 04:49:47;;;;;;;;;;;;;;;24.02;80.03;98562.33;1892788;76;20093;-63
2021/07/20 04:52:42;;;;;;;;;;;;;;;24.26;79.65;98562.00;1873108;76;20101;-62
2021/07/20 04:55:17;;;;;;;;;;;;;;;24.47;78.98;98554.34;1892745;76;20211;-62
2021/07/20 04:57:52;;;;;;;;;;;;;;;24.70;78.40;98560.17;1873417;76;20097;-62
2021/07/20 05:00:26;;;;;;;;;;;;;;;24.96;77.83;98555.28;1873445;76;20098;-62
2021/07/20 05:03:04;;;;;;;;;;;;;;;25.05;77.03;98560.07;1873230;76;20097;-63
2021/07/20 05:05:42;;;;;;;;;;;;;;;25.07;76.79;98556.88;1873241;76;20097;-63
2021/07/20 05:08:39;;;;;;;;;;;;;;;25.21;76.58;98563.59;1873398;76;20139;-62
2021/07/20 05:11:35;;;;;;;;;;;;;;;25.41;75.65;98567.77;1873468;76;20351;-63
2021/07/20 05:14:11;;;;;;;;;;;;;;;25.58;75.11;98561.55;1892716;76;20211;-63
2021/07/20 05:16:46;;;;;;;;;;;;;;;25.67;74.61;98568.96;1873463;76;20097;-64
2021/07/20 05:19:21;;;;;;;;;;;;;;;25.76;74.47;98568.41;1873455;76;20262;-62
2021/07/20 05:22:00;;;;;;;;;;;;;;;25.91;73.97;98573.32;1837745;77;20100;-62
2021/07/20 05:24:56;;;;;;;;;;;;;;;25.93;73.71;98573.25;1873408;76;20200;-64
2021/07/20 05:27:35;;;;;;;;;;;;;;;25.95;73.61;98581.91;1873453;76;20577;-60
2021/07/20 05:30:10;;;;;;;;;;;;;;;25.93;73.71;98586.47;1892759;76;20097;-62
2021/07/20 05:33:06;;;;;;;;;;;;;;;25.97;74.18;98586.65;1873405;76;20205;-61
2021/07/20 05:35:57;;;;;;;;;;;;;;;26.01;74.07;98588.19;1872592;76;20097;-61
2021/07/20 05:38:34;;;;;;;;;;;;;;;26.08;74.10;98573.67;1873221;76;20363;-62
2021/07/20 05:41:43;;;;;;;;;;;;;;;26.05;74.16;98579.11;1892901;76;20117;-61
2021/07/20 05:44:18;;;;;;;;;;;;;;;25.97;75.08;98574.75;1873423;76;20204;-63
2021/07/20 05:47:17;;;;;;;;;;;;;;;26.24;74.49;98575.41;1892756;76;20104;-63
2021/07/20 05:50:12;;;;;;;;;;;;;;;26.53;72.76;98581.14;1864047;75;20139;-61
2021/07/20 05:52:49;;;;;;;;;;;;;;;26.70;72.35;98588.55;1873439;76;20454;-61
2021/07/20 05:55:53;;;;;;;;;;;;;;;26.94;71.77;98587.02;1873156;76;20106;-62
2021/07/20 05:58:28;;;;;;;;;;;;;;;27.13;70.82;98584.56;1873448;76;20451;-61
2021/07/20 06:01:24;;;;;;;;;;;;;;;27.55;69.31;98590.73;1873291;76;20101;-60
2021/07/20 06:04:01;;;;;;;;;;;;;;;27.88;67.72;98589.88;1873538;76;20212;-62
2021/07/20 06:06:54;;;;;;;;;;;;;;;28.54;66.13;98584.14;1872973;76;20205;-61
2021/07/20 06:09:30;;;;;;;;;;;;;;;29.69;63.10;98583.61;1873367;76;20351;-59
2021/07/20 06:12:08;;;;;;;;;;;;;;;30.91;59.49;98590.30;1873447;76;20098;-61
2021/07/20 06:15:04;;;;;;;;;;;;;;;32.13;55.02;98593.33;1873370;76;20352;-63
2021/07/20 06:17:38;;;;;;;;;;;;;;;33.42;51.69;98591.58;1873453;76;20098;-59
2021/07/20 06:20:33;;;;;;;;;;;;;;;34.00;49.11;98601.55;1873314;76;20102;-61
2021/07/20 06:23:08;;;;;;;;;;;;;;;33.99;49.03;98605.69;1892745;76;20477;-63
2021/07/20 06:26:03;;;;;;;;;;;;;;;34.84;46.18;98614.81;1873157;76;20102;-61
2021/07/20 06:28:38;;;;;;;;;;;;;;;35.51;43.27;98617.70;1860468;77;20337;-61
2021/07/20 06:31:34;;;;;;;;;;;;;;;36.06;42.85;98624.34;1873192;76;20355;-63
2021/07/20 06:34:09;;;;;;;;;;;;;;;36.25;41.83;98623.85;1873300;76;20188;-61
2021/07/20 06:36:43;;;;;;;;;;;;;;;36.04;42.31;98626.33;1873432;76;20097;-63
2021/07/20 06:39:18;;;;;;;;;;;;;;;36.01;41.72;98622.62;1873437;76;20175;-61
2021/07/20 06:41:53;;;;;;;;;;;;;;;35.15;42.93;98615.42;1873438;76;20212;-62
2021/07/20 06:44:30;;;;;;;;;;;;;;;34.65;44.36;98605.81;1873272;76;20097;-59
2021/07/20 06:47:37;;;;;;;;;;;;;;;34.77;44.93;98612.70;1872531;76;20209;-59
2021/07/20 06:50:27;;;;;;;;;;;;;;;35.64;42.72;98618.20;1873428;76;20216;-62
2021/07/20 06:53:22;;;;;;;;;;;;;;;35.94;41.78;98620.70;1873417;76;20216;-62
2021/07/20 06:55:59;;;;;;;;;;;;;;;35.87;40.48;98620.45;1892759;76;20092;-61
2021/07/20 06:58:36;;;;;;;;;;;;;;;36.12;40.78;98619.38;1866045;76;20470;-63
2021/07/20 07:01:32;;;;;;;;;;;;;;;36.66;39.82;98626.88;1858724;76;20168;-63
2021/07/20 07:04:25;;;;;;;;;;;;;;;37.24;39.37;98620.84;1871913;76;20224;-65
2021/07/20 07:07:01;;;;;;;;;;;;;;;38.05;38.27;98636.94;1853267;76;20483;-64
2021/07/20 07:10:01;;;;;;;;;;;;;;;38.92;36.04;98637.27;1853276;76;20285;-65
2021/07/20 07:12:38;;;;;;;;;;;;;;;38.88;35.57;98634.56;1865561;76;20212;-66
2021/07/20 07:15:38;;;;;;;;;;;;;;;38.78;35.56;98640.15;1892714;76;20342;-63
2021/07/20 07:18:19;;;;;;;;;;;;;;;39.02;35.42;98636.56;1872538;76;20212;-66
2021/07/20 07:20:57;;;;;;;;;;;;;;;39.01;35.32;98640.29;1873379;76;20097;-62
2021/07/20 07:23:32;;;;;;;;;;;;;;;38.64;35.79;98643.02;1873422;76;20208;-62
2021/07/20 07:26:27;;;;;;;;;;;;;;;38.03;36.49;98647.03;1873226;76;20356;-63
2021/07/20 07:29:10;;;;;;;;;;;;;;;38.52;35.87;98639.49;1892691;76;20240;-63
2021/07/20 07:31:47;;;;;;;;;;;;;;;38.85;35.37;98631.70;1873386;76;20208;-64
2021/07/20 07:34:23;;;;;;;;;;;;;;;39.05;34.43;98633.52;1873471;76;20098;-64
2021/07/20 07:37:21;;;;;;;;;;;;;;;38.97;33.60;98625.45;1873391;76;20287;-61
2021/07/20 07:39:59;;;;;;;;;;;;;;;38.80;33.48;98626.47;1873287;76;20204;-65
2021/07/20 07:42:35;;;;;;;;;;;;;;;38.89;32.73;98625.95;1873329;76;20348;-66
2021/07/20 07:45:36;;;;;;;;;;;;;;;39.12;32.69;98628.27;1872571;76;20208;-61
2021/07/20 07:48:12;;;;;;;;;;;;;;;39.34;32.25;98625.36;1892752;76;20093;-65
2021/07/20 07:50:50;;;;;;;;;;;;;;;39.49;31.89;98624.95;1873273;76;20299;-63
2021/07/20 07:53:25;;;;;;;;;;;;;;;39.83;31.76;98625.11;1892804;76;20350;-63
2021/07/20 07:56:00;;;;;;;;;;;;;;;40.31;30.62;98625.79;1873441;76;20093;-65
2021/07/20 07:58:56;;;;;;;;;;;;;;;40.34;30.57;98625.42;1892821;76;20209;-65
2021/07/20 08:01:32;;;;;;;;;;;;;;;40.48;29.94;98636.45;1873464;76;20097;-65
2021/07/20 08:04:07;;;;;;;;;;;;;;;40.82;29.55;98635.16;1892891;76;20204;-65
2021/07/20 08:06:43;;;;;;;;;;;;;;;41.08;29.12;98640.11;1873447;76;20090;-64
2021/07/20 08:09:38;;;;;;;;;;;;;;;40.66;29.65;98632.95;1873217;76;20342;-62
2021/07/20 08:12:32;;;;;;;;;;;;;;;40.45;30.63;98621.95;1891816;76;20208;-63
2021/07/20 08:15:14;;;;;;;;;;;;;;;41.25;28.84;98628.61;1892749;76;20097;-64
2021/07/20 08:18:09;;;;;;;;;;;;;;;41.01;29.23;98634.59;1873389;76;20208;-63
2021/07/20 08:21:07;;;;;;;;;;;;;;;41.02;29.11;98640.34;1873398;76;20208;-62
2021/07/20 08:23:43;;;;;;;;;;;;;;;40.96;29.07;98639.20;1892759;76;20207;-62
2021/07/20 08:26:46;;;;;;;;;;;;;;;39.72;30.51;98637.66;1873399;76;20208;-63
2021/07/20 08:29:23;;;;;;;;;;;;;;;38.96;31.51;98633.22;1892756;76;20342;-62
2021/07/20 08:32:01;;;;;;;;;;;;;;;38.37;32.52;98629.86;1873465;76;20212;-64
2021/07/20 08:34:47;;;;;;;;;;;;;;;37.54;34.02;98634.27;1892733;76;20215;-63
2021/07/20 08:37:22;;;;;;;;;;;;;;;36.76;35.56;98626.78;1873481;76;20204;-63
2021/07/20 08:40:46;;;;;;;;;;;;;;;36.10;36.65;98614.66;1892690;76;20101;-64
2021/07/20 08:43:27;;;;;;;;;;;;;;;35.51;37.37;98613.67;1873389;76;20204;-63
2021/07/20 08:46:11;;;;;;;;;;;;;;;34.82;38.22;98608.75;1873458;76;20102;-62
2021/07/20 08:49:13;;;;;;;;;;;;;;;34.15;39.45;98600.67;1873483;76;20094;-64
2021/07/20 08:52:06;;;;;;;;;;;;;;;33.87;40.28;98597.81;1873397;76;20204;-63
2021/07/20 08:55:14;;;;;;;;;;;;;;;34.26;40.08;98591.13;1873402;76;20137;-64
2021/07/20 08:58:07;;;;;;;;;;;;;;;35.05;38.54;98606.04;1873581;76;20098;-62
2021/07/20 09:01:04;;;;;;;;;;;;;;;35.64;37.61;98602.59;1873544;76;20208;-63
2021/07/20 09:04:13;;;;;;;;;;;;;;;36.19;36.91;98604.34;1873445;76;20233;-63
2021/07/20 09:07:15;;;;;;;;;;;;;;;36.78;35.61;98595.20;1892870;76;20113;-64
2021/07/20 09:10:13;;;;;;;;;;;;;;;36.69;35.88;98586.25;1873496;76;20101;-64
2021/07/20 09:13:10;;;;;;;;;;;;;;;36.42;36.67;98592.08;1873484;76;20348;-64
2021/07/20 09:16:09;;;;;;;;;;;;;;;35.63;37.10;98587.50;1873464;76;20458;-64
2021/07/20 09:19:26;;;;;;;;;;;;;;;34.82;37.94;98577.91;1873406;76;20097;-63
2021/07/20 09:22:11;;;;;;;;;;;;;;;34.19;39.24;98573.93;1873565;76;20216;-63
2021/07/20 09:24:52;;;;;;;;;;;;;;;34.26;39.50;98572.88;1873460;76;20094;-63
2021/07/20 09:27:52;;;;;;;;;;;;;;;33.97;39.74;98563.48;1892787;76;20203;-66
2021/07/20 09:30:49;;;;;;;;;;;;;;;33.44;40.30;98569.55;1892844;76;20097;-63
2021/07/20 09:34:26;;;;;;;;;;;;;;;32.86;40.97;98566.67;1872541;76;20252;-64
2021/07/20 09:37:04;;;;;;;;;;;;;;;32.43;41.64;98567.19;1873465;76;20315;-65
2021/07/20 09:40:04;;;;;;;;;;;;;;;31.74;42.92;98562.30;1873387;76;20212;-64
2021/07/20 09:42:42;;;;;;;;;;;;;;;31.77;43.96;98556.70;1873454;76;20097;-64
2021/07/20 09:45:43;;;;;;;;;;;;;;;31.91;42.17;98549.39;1892755;76;20359;-63
2021/07/20 09:48:36;;;;;;;;;;;;;;;31.88;42.66;98547.82;1892727;76;20355;-62
2021/07/20 09:51:23;;;;;;;;;;;;;;;31.79;43.62;98542.75;1892774;76;20097;-62
2021/07/20 09:54:24;;;;;;;;;;;;;;;31.79;44.23;98533.41;1873270;76;20367;-63
2021/07/20 09:57:47;;;;;;;;;;;;;;;31.79;43.71;98532.56;1873450;76;20212;-65
2021/07/20 10:00:25;;;;;;;;;;;;;;;31.67;43.86;98535.75;1873352;76;20098;-64
2021/07/20 10:03:42;;;;;;;;;;;;;;;31.55;43.62;98527.45;1873497;76;20454;-64
2021/07/20 10:06:29;;;;;;;;;;;;;;;31.41;44.07;98530.41;1873388;76;20097;-63
2021/07/20 10:09:08;;;;;;;;;;;;;;;31.31;44.90;98525.78;1873306;76;20184;-65
2021/07/20 10:12:01;;;;;;;;;;;;;;;31.28;43.45;98530.03;1873341;76;20097;-61
2021/07/20 10:14:59;;;;;;;;;;;;;;;31.23;43.48;98522.05;1873308;76;20098;-63
2021/07/20 10:18:00;;;;;;;;;;;;;;;31.08;43.48;98522.31;1892753;76;20093;-64
2021/07/20 10:20:53;;;;;;;;;;;;;;;31.01;44.09;98514.94;1873403;76;20097;-62
2021/07/20 10:24:00;;;;;;;;;;;;;;;30.97;43.94;98502.35;1892760;76;20457;-64
2021/07/20 10:27:06;;;;;;;;;;;;;;;30.93;44.61;98500.41;1873565;76;20355;-64
2021/07/20 10:30:00;;;;;;;;;;;;;;;31.10;44.42;98500.88;1892948;76;20097;-64
2021/07/20 10:33:10;;;;;;;;;;;;;;;31.33;43.96;98499.00;1880221;75;20132;-64
2021/07/20 10:35:59;;;;;;;;;;;;;;;31.56;44.15;98504.64;1892787;76;20096;-63
2021/07/20 10:38:54;;;;;;;;;;;;;;;31.89;43.45;98500.63;1873351;76;20098;-64
2021/07/20 10:42:01;;;;;;;;;;;;;;;32.08;43.38;98504.77;1873300;76;20204;-63
2021/07/20 10:45:06;;;;;;;;;;;;;;;31.88;43.04;98503.78;1873455;76;20443;-62
2021/07/20 10:48:06;;;;;;;;;;;;;;;31.66;43.26;98508.73;1873337;76;20097;-63
2021/07/20 10:51:06;;;;;;;;;;;;;;;31.09;45.18;98500.50;1892749;76;20453;-62
2021/07/20 10:54:02;;;;;;;;;;;;;;;30.96;46.65;98498.47;1873375;76;20101;-62
2021/07/20 10:56:58;;;;;;;;;;;;;;;30.58;47.61;98493.02;1873495;76;20204;-63
2021/07/20 11:00:04;;;;;;;;;;;;;;;30.32;48.70;98493.73;1873431;76;20250;-62
2021/07/20 11:02:59;;;;;;;;;;;;;;;30.03;48.58;98487.00;1873452;76;20208;-63
2021/07/20 11:05:35;;;;;;;;;;;;;;;29.68;49.54;98479.53;1873362;76;20097;-64
2021/07/20 11:08:10;;;;;;;;;;;;;;;29.40;50.13;98485.55;1892777;76;20215;-63
2021/07/20 11:10:48;;;;;;;;;;;;;;;29.26;51.12;98485.70;1873441;76;20220;-64
2021/07/20 11:13:33;;;;;;;;;;;;;;;29.28;51.21;98489.09;1873365;76;20352;-64
2021/07/20 11:16:10;;;;;;;;;;;;;;;29.29;50.26;98488.16;1873197;76;20209;-65
2021/07/20 11:18:51;;;;;;;;;;;;;;;29.28;49.58;98481.97;1892779;76;20092;-63
2021/07/20 11:21:27;;;;;;;;;;;;;;;29.37;49.23;98488.44;1873473;76;20459;-64
2021/07/20 11:24:01;;;;;;;;;;;;;;;29.49;49.09;98482.21;1892761;76;20199;-64
2021/07/20 11:26:37;;;;;;;;;;;;;;;29.63;49.30;98478.02;1873335;76;20097;-65
2021/07/20 11:29:32;;;;;;;;;;;;;;;29.73;48.71;98477.37;1892739;76;20096;-64
2021/07/20 11:32:29;;;;;;;;;;;;;;;29.61;49.24;98476.44;1873309;76;20352;-62
2021/07/20 11:35:24;;;;;;;;;;;;;;;29.52;49.30;98476.66;1873562;76;20212;-63
2021/07/20 11:38:20;;;;;;;;;;;;;;;29.41;49.58;98477.47;1892719;76;20215;-63
2021/07/20 11:41:09;;;;;;;;;;;;;;;29.28;51.17;98467.84;1892804;76;20212;-64
2021/07/20 11:44:10;;;;;;;;;;;;;;;28.92;52.28;98462.41;1892821;76;20207;-64
2021/07/20 11:47:00;;;;;;;;;;;;;;;28.59;53.22;98460.85;1873312;76;20102;-63
2021/07/20 11:49:58;;;;;;;;;;;;;;;28.49;53.84;98456.67;1873395;76;20097;-64
2021/07/20 11:52:48;;;;;;;;;;;;;;;28.43;54.08;98455.27;1873386;76;20093;-65
2021/07/20 11:55:58;;;;;;;;;;;;;;;28.55;53.93;98445.63;1892879;76;20207;-64
2021/07/20 11:59:26;;;;;;;;;;;;;;;28.64;53.00;98456.91;1852014;77;20159;-63
2021/07/20 12:02:38;;;;;;;;;;;;;;;28.62;53.18;98453.51;1892775;76;20211;-62
2021/07/20 12:05:22;;;;;;;;;;;;;;;28.49;52.72;98452.69;1873382;76;20212;-64
2021/07/20 12:08:13;;;;;;;;;;;;;;;28.34;52.79;98452.80;1873421;76;20098;-64
2021/07/20 12:11:00;;;;;;;;;;;;;;;28.30;53.02;98443.83;1873449;76;20097;-62
2021/07/20 12:13:44;;;;;;;;;;;;;;;28.36;52.95;98441.57;1872567;76;20212;-63
2021/07/20 12:16:41;;;;;;;;;;;;;;;28.47;52.95;98445.30;1873316;76;20204;-62
2021/07/20 12:19:25;;;;;;;;;;;;;;;28.69;52.60;98450.78;1873550;76;20208;-63
2021/07/20 12:22:08;;;;;;;;;;;;;;;28.91;52.38;98445.27;1873625;76;20216;-62
2021/07/20 12:24:45;;;;;;;;;;;;;;;29.17;51.11;98445.56;1892784;76;20370;-63
2021/07/20 12:27:52;;;;;;;;;;;;;;;29.47;50.49;98445.58;1892711;76;20347;-62
2021/07/20 12:30:30;;;;;;;;;;;;;;;29.63;50.29;98450.58;1873282;76;20094;-63
2021/07/20 12:33:24;;;;;;;;;;;;;;;29.87;49.79;98451.91;1873505;76;20094;-62
2021/07/20 12:36:02;;;;;;;;;;;;;;;29.96;51.74;98448.52;1873230;76;20375;-62
2021/07/20 12:38:39;;;;;;;;;;;;;;;30.09;50.03;98445.76;1873217;76;20098;-64
2021/07/20 12:41:20;;;;;;;;;;;;;;;30.35;51.13;98448.23;1872621;76;20208;-63
2021/07/20 12:43:57;;;;;;;;;;;;;;;30.55;51.42;98442.17;1873604;76;20212;-62
2021/07/20 12:46:36;;;;;;;;;;;;;;;30.65;51.07;98445.79;1873479;76;20458;-64
2021/07/20 12:49:10;;;;;;;;;;;;;;;30.50;51.63;98454.52;1873448;76;20367;-62
2021/07/20 12:51:48;;;;;;;;;;;;;;;30.16;52.31;98446.14;1892806;76;20355;-64
2021/07/20 12:54:39;;;;;;;;;;;;;;;30.03;52.94;98444.42;1873476;76;20200;-65
2021/07/20 12:57:15;;;;;;;;;;;;;;;29.99;52.93;98442.95;1873575;76;20455;-65
2021/07/20 12:59:51;;;;;;;;;;;;;;;29.83;53.27;98441.97;1892742;76;20203;-64
2021/07/20 13:02:29;;;;;;;;;;;;;;;29.79;52.89;98441.85;1873223;76;20098;-62
2021/07/20 13:05:08;;;;;;;;;;;;;;;29.81;52.86;98437.73;1873445;76;20097;-63
2021/07/20 13:07:43;;;;;;;;;;;;;;;29.63;50.90;98440.78;1892769;76;20203;-64
2021/07/20 13:10:18;;;;;;;;;;;;;;;29.66;50.74;98433.58;1892779;76;20212;-64
2021/07/20 13:12:54;;;;;;;;;;;;;;;29.67;49.91;98431.27;1873460;76;20208;-63
2021/07/20 13:15:29;;;;;;;;;;;;;;;29.66;49.98;98432.25;1873390;76;20356;-63
2021/07/20 13:18:06;;;;;;;;;;;;;;;29.64;49.98;98425.67;1892775;76;20101;-64
2021/07/20 13:20:43;;;;;;;;;;;;;;;29.48;51.39;98427.32;1873380;76;20144;-62
2021/07/20 13:23:17;;;;;;;;;;;;;;;29.40;53.25;98424.40;1873452;76;20097;-63
2021/07/20 13:25:53;;;;;;;;;;;;;;;28.94;54.71;98420.65;1873581;76;20447;-64
2021/07/20 13:28:28;;;;;;;;;;;;;;;28.45;56.49;98427.34;1892778;76;20097;-63
2021/07/20 13:31:09;;;;;;;;;;;;;;;28.23;56.79;98411.55;1873261;76;20102;-63
2021/07/20 13:33:44;;;;;;;;;;;;;;;28.26;56.43;98405.18;1873369;76;20450;-63
2021/07/20 13:36:42;;;;;;;;;;;;;;;28.34;56.52;98394.41;1892766;76;20104;-62
2021/07/20 13:39:18;;;;;;;;;;;;;;;28.39;56.74;98390.08;1892861;76;20101;-65
2021/07/20 13:41:52;;;;;;;;;;;;;;;28.46;56.39;98382.56;1873548;76;20454;-63
2021/07/20 13:44:27;;;;;;;;;;;;;;;28.49;55.22;98384.99;1873513;76;20348;-62
2021/07/20 13:47:04;;;;;;;;;;;;;;;28.49;55.84;98384.99;1873193;76;20470;-63
2021/07/20 13:49:39;;;;;;;;;;;;;;;28.47;56.11;98377.61;1873426;76;20093;-63
2021/07/20 13:52:19;;;;;;;;;;;;;;;28.61;56.53;98381.46;1873192;76;20097;-64
2021/07/20 13:54:58;;;;;;;;;;;;;;;28.77;55.79;98388.66;1873236;76;20090;-63
2021/07/20 13:57:34;;;;;;;;;;;;;;;28.96;55.48;98386.86;1873413;76;20545;-65
2021/07/20 14:00:11;;;;;;;;;;;;;;;29.22;53.88;98389.41;1873244;76;20097;-63
2021/07/20 14:03:05;;;;;;;;;;;;;;;29.35;52.96;98394.17;1877864;75;20390;-64
2021/07/20 14:05:40;;;;;;;;;;;;;;;29.35;53.01;98399.97;1892802;76;20215;-64
2021/07/20 14:08:15;;;;;;;;;;;;;;;29.31;52.68;98398.50;1873448;76;20351;-65
2021/07/20 14:10:50;;;;;;;;;;;;;;;29.28;53.89;98396.07;1873447;76;20208;-64
2021/07/20 14:13:26;;;;;;;;;;;;;;;29.17;54.85;98390.23;1892818;76;20204;-64
2021/07/20 14:16:03;;;;;;;;;;;;;;;28.93;55.90;98387.09;1873386;76;20097;-63
2021/07/20 14:18:42;;;;;;;;;;;;;;;28.67;56.71;98384.98;1873452;76;20204;-64
2021/07/20 14:21:30;;;;;;;;;;;;;;;28.56;57.04;98383.11;1892658;76;20379;-63
2021/07/20 14:24:11;;;;;;;;;;;;;;;28.36;57.37;98379.20;1873395;76;20458;-64
2021/07/20 14:26:52;;;;;;;;;;;;;;;28.11;58.10;98372.16;1873391;76;20093;-64